Etusivu
METAR-TAF:

METAR-TAF

Lentoasemat :

Yap, Yap Island, Mikronesia

Yapin kansainvälinen lentoasema

Leveyspiiri: 09-29N, Pituuspiiri: 138-05E, korkeus merenpinnasta: 28 m

Tämänhetkinen sää

Tämä raportti tehtiin 58 minuuttia sitten, kello 00.52 UTC
Tuuli 12 kn idästä/koillisesta puuskistuen 18 kn:hen
Lämpötila 30°C
Kosteus 70%
Ilmanpaine 1009 hPa
Näkyvyys: 19.3 km
Muutamia pilviä 1600 ft:n korkeudessa
Hajanaisia pilviä 13000 ft:n korkeudessa
Pilvistä 30000 ft:n korkeudessa

METAR: PTYA 250052Z 06012G18KT 12SM FEW016 SCT130 OVC300 30/24 A2980 RMK SLP091 T03030240

Aika: 11:50 (01:50 UTC)

Sääennuste

Tämä raportti tehtiin 2 tuntia ja 23 minuuttia sitten, kello 23.27 UTC
Ennuste voimassa 25. päivästä klo 00 UTC - 25. päivään klo 24 UTC
Tuuli 11 kn idästä/koillisesta
Näkyvyys: 10 km
Muutamia pilviä 1600 ft:n korkeudessa
Hajanaisia pilviä 3000 ft:n korkeudessa
sadekuuroja näköpiirissä

TAF: PTYA 242327Z 2500/2524 07011KT P6SM VCSH FEW016 SCT030

Säähavainnot ja -ennusteet yli 4000 lentoasemalta (METAR- ja TAF-raportit).

Käytössä olevat sääasemat on merkitty karttaan keltaisilla ja punaisilla pisteillä.

Aseta hiiri pisteen päälle nähdäksesi sääaseman nimen.

Klikkaa sitten nähdäksesi säähavainnot ja -ennusteet.

Kartan vaihtaminen: klikkaa mustalla rastilla varustettuja vihreitä pisteitä, niin voit zoomata sisään; viivalla varustettua vihreää pistettä, niin voit zoomata ulos tai vihreitä nuolia, niin pääset viereisille kartoille.


METAR-TAF: